Time;durP1;ratioP1;P1;durP2;ratioP2;P2;SDS_P1;SDS_P2;PMS_P1;PMS_P2;Temp;Humidity;BMP_temperature;BMP_pressure;BME280_temperature;BME280_humidity;BME280_pressure;Samples;Min_cycle;Max_cycle;Signal;HPM_P1;HPM_P2
2021/08/16 00:02:02;79113.00;0.26;137.51;0.00;0.00;0.62;;;;;25.40;4.20;;;;;;2276572;61;1125;-82
2021/08/16 00:04:29;0.00;0.00;0.62;0.00;0.00;0.62;;;;;25.60;4.00;;;;;;2276084;61;1285;-82
2021/08/16 00:06:56;220900.00;0.74;381.89;34651.00;0.12;60.63;;;;;25.60;3.30;;;;;;2276163;61;1168;-82
2021/08/16 00:09:25;422802.00;1.41;729.01;90899.00;0.30;157.86;;;;;25.50;3.20;;;;;;2276202;61;2033;-82
2021/08/16 00:11:52;156029.00;0.52;270.20;0.00;0.00;0.62;;;;;25.60;3.20;;;;;;2277025;61;1096;-82
2021/08/16 00:14:18;63550.00;0.21;110.61;0.00;0.00;0.62;;;;;25.50;3.90;;;;;;2276880;61;1377;-82
2021/08/16 00:16:45;72341.00;0.24;125.81;0.00;0.00;0.62;;;;;25.50;3.60;;;;;;2277415;61;1152;-82
2021/08/16 00:19:12;231377.00;0.77;399.92;16410.00;0.05;29.05;;;;;25.60;3.10;;;;;;2280325;61;1164;-82
2021/08/16 00:21:39;348387.00;1.16;601.09;45742.00;0.15;79.82;;;;;25.50;3.20;;;;;;2281080;61;1206;-82
2021/08/16 00:24:06;7219.00;0.02;13.13;0.00;0.00;0.62;;;;;25.30;3.80;;;;;;2281009;61;1293;-83
2021/08/16 00:26:34;317188.00;1.06;547.46;48120.00;0.16;83.93;;;;;25.50;3.60;;;;;;2281637;61;1175;-82
2021/08/16 00:29:01;79182.00;0.26;137.62;0.00;0.00;0.62;;;;;25.50;3.70;;;;;;2282734;60;2007;-82
2021/08/16 00:31:28;103749.00;0.35;180.04;37811.00;0.13;66.10;;;;;25.60;3.50;;;;;;2284373;60;1038;-82
2021/08/16 00:33:56;117997.00;0.39;204.63;25163.00;0.08;44.21;;;;;25.50;3.60;;;;;;2283016;61;1330;-82
2021/08/16 00:36:23;64946.00;0.22;113.03;0.00;0.00;0.62;;;;;25.50;3.50;;;;;;2276199;61;1157;-82
2021/08/16 00:38:50;114478.00;0.38;198.56;0.00;0.00;0.62;;;;;25.50;3.80;;;;;;2276813;61;1195;-82
2021/08/16 00:41:19;0.00;0.00;0.62;0.00;0.00;0.62;;;;;25.40;3.50;;;;;;2276213;61;1106;-82
2021/08/16 00:43:49;66108.00;0.22;115.03;0.00;0.00;0.62;;;;;25.30;4.20;;;;;;2272876;61;1370;-82
2021/08/16 00:46:17;122479.00;0.41;212.36;0.00;0.00;0.62;;;;;25.10;5.60;;;;;;2275477;61;1160;-82
2021/08/16 00:48:44;117075.00;0.39;203.04;25092.00;0.08;44.09;;;;;25.00;5.90;;;;;;2278091;61;1921;-82
2021/08/16 00:51:13;0.00;0.00;0.62;0.00;0.00;0.62;;;;;25.20;5.40;;;;;;2278392;61;1149;-82
2021/08/16 00:53:41;118496016.00;394.99;67398568.00;0.00;0.00;0.62;;;;;25.20;5.40;;;;;;2277757;61;1375;-82
2021/08/16 00:56:09;191505.00;0.64;331.30;0.00;0.00;0.62;;;;;25.30;5.20;;;;;;2273384;61;1172;-82
2021/08/16 00:58:36;145446.00;0.48;251.96;49017.00;0.16;85.49;;;;;25.30;4.20;;;;;;2272921;61;1084;-82
2021/08/16 01:01:04;33747.00;0.11;59.07;0.00;0.00;0.62;;;;;25.50;4.40;;;;;;2273603;61;1148;-82
2021/08/16 01:03:32;48935.00;0.16;85.34;0.00;0.00;0.62;;;;;25.30;5.20;;;;;;2273178;61;1822;-82
2021/08/16 01:05:59;0.00;0.00;0.62;0.00;0.00;0.62;;;;;25.30;5.80;;;;;;2273717;61;1669;-82
2021/08/16 01:08:27;221789.00;0.74;383.42;27879.00;0.09;48.91;;;;;25.30;6.20;;;;;;2273807;61;2024;-82
2021/08/16 01:10:55;93168.00;0.31;161.78;0.00;0.00;0.62;;;;;25.10;7.20;;;;;;2273407;61;1112;-82
2021/08/16 01:13:22;44669.00;0.15;77.97;0.00;0.00;0.62;;;;;25.20;6.40;;;;;;2272942;61;1359;-82
2021/08/16 01:15:57;362358.00;1.21;625.10;29433.00;0.10;51.60;;;;;25.20;6.20;;;;;;2272741;61;1209;-82
2021/08/16 01:18:26;328775.00;1.10;567.38;95555.00;0.32;165.90;;;;;25.30;6.30;;;;;;2272689;61;1161;-82
2021/08/16 01:20:54;249813.00;0.83;431.63;13115.00;0.04;23.35;;;;;25.30;6.40;;;;;;2272836;61;1159;-82
2021/08/16 01:23:22;52690.00;0.18;91.84;0.00;0.00;0.62;;;;;25.20;6.30;;;;;;2273441;61;1407;-82
2021/08/16 01:25:49;163988.00;0.55;283.91;11110.00;0.04;19.87;;;;;25.10;5.80;;;;;;2275409;61;1136;-81
2021/08/16 01:28:19;276504.00;0.92;477.53;0.00;0.00;0.62;;;;;25.10;7.20;;;;;;2276616;61;2010;-82
2021/08/16 01:30:48;297820.00;0.99;514.17;92782.00;0.31;161.11;;;;;24.90;7.50;;;;;;2275491;61;1175;-82
2021/08/16 01:33:15;69017.00;0.23;120.06;0.00;0.00;0.62;;;;;25.00;7.50;;;;;;2273488;61;1364;-82
2021/08/16 01:35:41;34046.00;0.11;59.59;0.00;0.00;0.62;;;;;24.90;8.10;;;;;;2273856;61;1132;-82
2021/08/16 01:38:08;0.00;0.00;0.62;0.00;0.00;0.62;;;;;24.90;8.40;;;;;;2273900;61;1225;-81
2021/08/16 01:40:35;62800.00;0.21;109.32;0.00;0.00;0.62;;;;;24.90;6.70;;;;;;2273161;61;1101;-82
2021/08/16 01:43:02;192298.00;0.64;332.66;0.00;0.00;0.62;;;;;25.10;6.30;;;;;;2273152;61;1085;-81
2021/08/16 01:45:31;44508.00;0.15;77.69;0.00;0.00;0.62;;;;;25.20;6.00;;;;;;2273553;61;1247;-81
2021/08/16 01:47:58;11346.00;0.04;20.28;0.00;0.00;0.62;;;;;25.20;6.10;;;;;;2273792;61;1259;-84
2021/08/16 01:50:25;201605.00;0.67;348.69;25120.00;0.08;44.14;;;;;24.90;7.10;;;;;;2274095;61;1073;-84
2021/08/16 01:52:53;69509.00;0.23;120.91;536.00;0.00;1.55;;;;;24.50;7.50;;;;;;2276133;61;1292;-82
2021/08/16 01:55:20;166852.00;0.56;288.84;0.00;0.00;0.62;;;;;24.70;7.10;;;;;;2279256;61;1438;-84
2021/08/16 01:57:47;175967.00;0.59;304.54;0.00;0.00;0.62;;;;;21.80;19.70;;;;;;2269613;61;1054;-83
2021/08/16 02:00:14;5747.00;0.02;10.58;0.00;0.00;0.62;;;;;20.30;31.30;;;;;;2275092;61;1156;-82
2021/08/16 02:02:42;0.00;0.00;0.62;0.00;0.00;0.62;;;;;20.60;30.30;;;;;;2275574;61;1199;-85
2021/08/16 02:05:10;31918.00;0.11;55.90;0.00;0.00;0.62;;;;;21.20;23.60;;;;;;2273617;61;1359;-84
2021/08/16 02:07:37;0.00;0.00;0.62;0.00;0.00;0.62;;;;;21.80;18.70;;;;;;2272030;61;1106;-85
2021/08/16 02:10:06;0.00;0.00;0.62;0.00;0.00;0.62;;;;;22.10;13.70;;;;;;2271516;61;2024;-84
2021/08/16 02:12:33;0.00;0.00;0.62;0.00;0.00;0.62;;;;;22.10;13.40;;;;;;2272163;61;1216;-84
2021/08/16 02:15:00;227185.00;0.76;392.71;86407.00;0.29;150.10;;;;;22.30;13.20;;;;;;2272552;61;1292;-84
2021/08/16 02:17:27;10241.00;0.03;18.37;0.00;0.00;0.62;;;;;22.50;12.40;;;;;;2271905;61;1145;-84
2021/08/16 02:19:55;0.00;0.00;0.62;0.00;0.00;0.62;;;;;22.70;11.80;;;;;;2271391;61;1141;-84
2021/08/16 02:22:22;24986.00;0.08;43.90;0.00;0.00;0.62;;;;;22.90;11.00;;;;;;2271085;61;1018;-84
2021/08/16 02:24:49;38506.00;0.13;67.30;0.00;0.00;0.62;;;;;22.90;10.50;;;;;;2271060;61;1688;-84
2021/08/16 02:27:16;100175.00;0.33;173.87;0.00;0.00;0.62;;;;;23.10;9.90;;;;;;2271527;61;1703;-84
2021/08/16 02:29:42;0.00;0.00;0.62;0.00;0.00;0.62;;;;;23.10;10.30;;;;;;2271776;61;2014;-84
2021/08/16 02:32:10;167563.00;0.56;290.07;0.00;0.00;0.62;;;;;23.40;9.50;;;;;;2271529;61;1140;-84
2021/08/16 02:34:36;0.00;0.00;0.62;0.00;0.00;0.62;;;;;23.60;9.00;;;;;;2271411;61;1376;-82
2021/08/16 02:37:05;0.00;0.00;0.62;0.00;0.00;0.62;;;;;23.80;8.90;;;;;;2271669;61;1191;-82
2021/08/16 02:39:32;103486.00;0.34;179.59;37297.00;0.12;65.21;;;;;24.00;8.90;;;;;;2271431;61;1054;-82
2021/08/16 02:41:59;142041.00;0.47;246.09;0.00;0.00;0.62;;;;;24.00;8.00;;;;;;2271286;61;1150;-82
2021/08/16 02:44:26;57769.00;0.19;100.62;0.00;0.00;0.62;;;;;24.00;8.30;;;;;;2271338;61;1378;-82
2021/08/16 02:46:53;55882.00;0.19;97.36;0.00;0.00;0.62;;;;;23.80;8.70;;;;;;2271236;61;1150;-82
2021/08/16 02:49:19;0.00;0.00;0.62;0.00;0.00;0.62;;;;;23.70;8.20;;;;;;2271707;61;1938;-82
2021/08/16 02:51:46;210749.00;0.70;364.42;0.00;0.00;0.62;;;;;23.70;8.70;;;;;;2271109;61;1109;-82
2021/08/16 02:54:14;24627.00;0.08;43.28;0.00;0.00;0.62;;;;;23.90;7.60;;;;;;2270654;61;1356;-82
2021/08/16 02:56:41;185825.00;0.62;321.52;0.00;0.00;0.62;;;;;23.90;7.50;;;;;;2271424;61;1150;-82
2021/08/16 02:59:08;22925.00;0.08;40.33;0.00;0.00;0.62;;;;;24.00;7.00;;;;;;2271252;61;1619;-82
2021/08/16 03:01:35;52560.00;0.18;91.61;0.00;0.00;0.62;;;;;24.10;7.00;;;;;;2271390;61;1061;-82
2021/08/16 03:04:02;134365.00;0.45;232.86;27131.00;0.09;47.62;;;;;24.30;6.60;;;;;;2270984;61;1283;-82
2021/08/16 03:06:29;0.00;0.00;0.62;0.00;0.00;0.62;;;;;24.20;6.90;;;;;;2270963;61;1130;-82
2021/08/16 03:08:57;0.00;0.00;0.62;0.00;0.00;0.62;;;;;24.20;6.40;;;;;;2271130;61;1943;-82
2021/08/16 03:11:26;151855.00;0.51;263.00;0.00;0.00;0.62;;;;;24.10;6.90;;;;;;2271577;61;1797;-82
2021/08/16 03:13:54;96714.00;0.32;167.90;29988.00;0.10;52.56;;;;;24.10;6.70;;;;;;2271186;61;1343;-83
2021/08/16 03:16:21;15704.00;0.05;27.83;0.00;0.00;0.62;;;;;24.00;6.90;;;;;;2272033;61;1116;-83
2021/08/16 03:18:48;21892.00;0.07;38.55;0.00;0.00;0.62;;;;;23.90;7.60;;;;;;2273014;61;1224;-83
2021/08/16 03:21:15;90693.00;0.30;157.50;19137.00;0.06;33.78;;;;;23.80;7.20;;;;;;2272853;61;1140;-83
2021/08/16 03:23:42;10628.00;0.04;19.04;0.00;0.00;0.62;;;;;23.70;7.30;;;;;;2273386;61;1924;-83
2021/08/16 03:26:09;317701.00;1.06;548.35;60590.00;0.20;105.50;;;;;23.70;7.60;;;;;;2275159;61;1124;-82
2021/08/16 03:28:37;49972.00;0.17;87.14;0.00;0.00;0.62;;;;;23.70;7.70;;;;;;2279706;61;1921;-82
2021/08/16 03:31:04;254031.00;0.85;438.88;68592.00;0.23;119.33;;;;;23.50;8.80;;;;;;2279995;61;1545;-82
2021/08/16 03:33:31;52584.00;0.18;91.65;0.00;0.00;0.62;;;;;23.20;10.20;;;;;;2272634;61;1332;-82
2021/08/16 03:35:58;195995.00;0.65;339.03;0.00;0.00;0.62;;;;;23.30;9.70;;;;;;2270883;61;1117;-82
2021/08/16 03:38:25;0.00;0.00;0.62;0.00;0.00;0.62;;;;;23.30;9.80;;;;;;2270795;61;1243;-82
2021/08/16 03:40:52;58754.00;0.20;102.32;0.00;0.00;0.62;;;;;23.00;10.40;;;;;;2270754;61;1227;-82
2021/08/16 03:43:19;10096.00;0.03;18.12;0.00;0.00;0.62;;;;;23.00;10.90;;;;;;2271161;61;1374;-82
2021/08/16 03:45:48;0.00;0.00;0.62;0.00;0.00;0.62;;;;;23.10;10.60;;;;;;2270859;61;1210;-82
2021/08/16 03:48:15;109210.00;0.36;189.47;42851.00;0.14;74.82;;;;;23.20;10.10;;;;;;2271310;61;1222;-82
2021/08/16 03:50:42;12010.00;0.04;21.43;0.00;0.00;0.62;;;;;23.10;9.70;;;;;;2271173;61;1943;-82
2021/08/16 03:53:08;188881.00;0.63;326.78;34053.00;0.11;59.60;;;;;23.00;10.70;;;;;;2271100;61;1135;-82
2021/08/16 03:55:35;155722.00;0.52;269.67;27633.00;0.09;48.49;;;;;23.00;11.00;;;;;;2271334;61;1159;-82
2021/08/16 03:58:02;0.00;0.00;0.62;0.00;0.00;0.62;;;;;22.90;11.20;;;;;;2270466;61;1057;-82
2021/08/16 04:00:29;155135.00;0.52;268.66;35017.00;0.12;61.27;;;;;22.70;12.00;;;;;;2270555;61;1116;-82
2021/08/16 04:02:58;102358.00;0.34;177.64;0.00;0.00;0.62;;;;;22.70;12.20;;;;;;2270629;61;1177;-82
2021/08/16 04:05:25;112523.00;0.38;195.18;45807.00;0.15;79.93;;;;;22.50;12.60;;;;;;2270732;61;1243;-82
2021/08/16 04:07:52;253691.00;0.85;438.30;0.00;0.00;0.62;;;;;22.30;13.30;;;;;;2270561;61;1553;-82
2021/08/16 04:10:19;0.00;0.00;0.62;0.00;0.00;0.62;;;;;22.40;13.20;;;;;;2270682;61;1927;-83
2021/08/16 04:12:47;35019.00;0.12;61.27;0.00;0.00;0.62;;;;;22.40;12.90;;;;;;2270685;61;1067;-82
2021/08/16 04:15:17;129060.00;0.43;223.71;0.00;0.00;0.62;;;;;22.80;11.60;;;;;;2270262;61;1367;-82
2021/08/16 04:17:44;6337.00;0.02;11.60;0.00;0.00;0.62;;;;;22.90;11.00;;;;;;2270775;61;1080;-82
2021/08/16 04:20:14;0.00;0.00;0.62;0.00;0.00;0.62;;;;;22.70;10.70;;;;;;2270588;61;1187;-82
2021/08/16 04:22:42;174717.00;0.58;302.39;31552.00;0.11;55.27;;;;;22.60;11.80;;;;;;2270345;61;1168;-82
2021/08/16 04:25:11;76062.00;0.25;132.23;0.00;0.00;0.62;;;;;22.40;12.50;;;;;;2270686;61;1318;-82
2021/08/16 04:27:39;184675.00;0.62;319.54;28369.00;0.09;49.76;;;;;22.60;11.90;;;;;;2270737;61;1523;-82
2021/08/16 04:30:08;0.00;0.00;0.62;0.00;0.00;0.62;;;;;22.70;11.50;;;;;;2270681;61;1937;-82
2021/08/16 04:32:34;211833.00;0.71;366.29;167.00;0.00;0.91;;;;;22.90;10.40;;;;;;2270877;61;1081;-82
2021/08/16 04:35:01;58222.00;0.19;101.40;0.00;0.00;0.62;;;;;23.00;10.30;;;;;;2270345;61;1281;-82
2021/08/16 04:37:30;148397.00;0.49;257.04;0.00;0.00;0.62;;;;;23.10;10.30;;;;;;2270377;61;1261;-82
2021/08/16 04:39:57;115227.00;0.38;199.85;48431.00;0.16;84.47;;;;;23.30;8.90;;;;;;2270611;61;1148;-82
2021/08/16 04:42:23;103274.00;0.34;179.22;16369.00;0.05;28.98;;;;;23.40;9.50;;;;;;2270539;61;1156;-81
2021/08/16 04:44:50;114183.00;0.38;198.05;0.00;0.00;0.62;;;;;23.60;8.80;;;;;;2270072;61;1362;-84
2021/08/16 04:47:17;122254.00;0.41;211.97;0.00;0.00;0.62;;;;;23.40;8.70;;;;;;2270792;61;1149;-82
2021/08/16 04:49:44;195778.00;0.65;338.66;43377.00;0.14;75.73;;;;;23.10;10.40;;;;;;2270590;61;2029;-82
2021/08/16 04:52:11;120382.00;0.40;208.74;0.00;0.00;0.62;;;;;23.20;10.00;;;;;;2271295;61;1121;-82
2021/08/16 04:54:39;45909.00;0.15;80.11;0.00;0.00;0.62;;;;;23.20;10.40;;;;;;2271656;61;1280;-82
2021/08/16 04:57:06;206801.00;0.69;357.63;0.00;0.00;0.62;;;;;23.10;10.90;;;;;;2271710;61;1100;-82
2021/08/16 04:59:33;0.00;0.00;0.62;0.00;0.00;0.62;;;;;23.10;11.00;;;;;;2271478;61;1257;-82
2021/08/16 05:02:00;77613.00;0.26;134.91;8836.00;0.03;15.93;;;;;23.50;10.70;;;;;;2271121;61;1224;-83
2021/08/16 05:04:27;171693.00;0.57;297.18;78461.00;0.26;136.38;;;;;23.80;9.00;;;;;;2271268;61;1354;-82
2021/08/16 05:06:53;144894.00;0.48;251.01;47728.00;0.16;83.26;;;;;24.20;8.00;;;;;;2271152;61;1232;-82
2021/08/16 05:09:20;0.00;0.00;0.62;0.00;0.00;0.62;;;;;24.40;7.40;;;;;;2271159;61;1937;-83
2021/08/16 05:11:49;0.00;0.00;0.62;0.00;0.00;0.62;;;;;24.30;7.60;;;;;;2272401;61;1125;-85
2021/08/16 05:14:16;43123.00;0.14;75.29;0.00;0.00;0.62;;;;;24.40;6.60;;;;;;2281818;61;1454;-86
2021/08/16 05:16:43;207852.00;0.69;359.44;18788.00;0.06;33.17;;;;;24.50;6.00;;;;;;2279601;61;1258;-84
2021/08/16 05:19:10;0.00;0.00;0.62;0.00;0.00;0.62;;;;;24.60;5.70;;;;;;2279696;61;1917;-85
2021/08/16 05:21:37;109415.00;0.36;189.82;23971.00;0.08;42.15;;;;;24.50;6.20;;;;;;2279787;61;1451;-84
2021/08/16 05:24:04;81612.00;0.27;141.82;0.00;0.00;0.62;;;;;24.50;6.30;;;;;;2272589;61;1365;-85
2021/08/16 05:26:31;87933.00;0.29;152.74;22271.00;0.07;39.20;;;;;24.50;6.40;;;;;;2268832;60;1163;-85
2021/08/16 05:29:00;0.00;0.00;0.62;0.00;0.00;0.62;;;;;24.50;6.70;;;;;;2279136;61;1117;-85
2021/08/16 05:31:27;38441.00;0.13;67.19;0.00;0.00;0.62;;;;;24.40;7.30;;;;;;2267555;61;2013;-83
2021/08/16 05:33:53;0.00;0.00;0.62;0.00;0.00;0.62;;;;;24.50;6.60;;;;;;2270161;61;1308;-84
2021/08/16 05:36:20;0.00;0.00;0.62;0.00;0.00;0.62;;;;;24.60;6.30;;;;;;2268704;61;1183;-84
2021/08/16 05:38:47;89979.00;0.30;156.27;22990.00;0.08;40.45;;;;;24.60;7.30;;;;;;2283247;61;1109;-84
2021/08/16 05:41:14;29063.00;0.10;50.96;0.00;0.00;0.62;;;;;24.70;6.20;;;;;;2282694;61;1139;-84
2021/08/16 05:43:41;68134.00;0.23;118.54;0.00;0.00;0.62;;;;;24.70;6.50;;;;;;2275154;61;1378;-85
2021/08/16 05:46:09;25986.00;0.09;45.63;0.00;0.00;0.62;;;;;24.80;6.10;;;;;;2275964;61;1184;-84
2021/08/16 05:48:36;192585.00;0.64;333.16;41771.00;0.14;72.95;;;;;24.90;6.80;;;;;;2278580;61;1192;-84
2021/08/16 05:51:03;164407.00;0.55;284.63;45838.00;0.15;79.99;;;;;25.00;5.50;;;;;;2280312;61;2006;-85
2021/08/16 05:53:30;59121.00;0.20;102.96;0.00;0.00;0.62;;;;;25.00;5.80;;;;;;2276394;61;1426;-84
2021/08/16 05:55:57;0.00;0.00;0.62;0.00;0.00;0.62;;;;;24.90;6.00;;;;;;2279893;61;1058;-85
2021/08/16 05:58:24;0.00;0.00;0.62;0.00;0.00;0.62;;;;;25.10;5.70;;;;;;2279621;61;1157;-84
2021/08/16 06:00:51;275179.00;0.92;475.25;67884.00;0.23;118.10;;;;;25.10;5.10;;;;;;2278827;61;1034;-85
2021/08/16 06:03:19;65552.00;0.22;114.07;0.00;0.00;0.62;;;;;25.20;4.90;;;;;;2279252;61;1418;-85
2021/08/16 06:05:46;111488.00;0.37;193.40;0.00;0.00;0.62;;;;;25.00;5.50;;;;;;2268446;61;1180;-85
2021/08/16 06:08:12;0.00;0.00;0.62;0.00;0.00;0.62;;;;;24.50;7.60;;;;;;2268645;61;1122;-85
2021/08/16 06:10:39;4126.00;0.01;7.77;0.00;0.00;0.62;;;;;24.40;8.20;;;;;;2279587;61;1994;-86
2021/08/16 06:13:06;36589.00;0.12;63.99;0.00;0.00;0.62;;;;;24.30;8.70;;;;;;2272381;61;1168;-86
2021/08/16 06:15:33;269755.00;0.90;465.92;30571.00;0.10;53.57;;;;;24.20;8.50;;;;;;2269533;61;1531;-85
2021/08/16 06:18:00;168314.00;0.56;291.36;0.00;0.00;0.62;;;;;24.30;7.90;;;;;;2279643;61;904;-83
2021/08/16 06:20:29;0.00;0.00;0.62;0.00;0.00;0.62;;;;;24.50;6.50;;;;;;2278804;61;1077;-85
2021/08/16 06:22:55;0.00;0.00;0.62;0.00;0.00;0.62;;;;;24.80;6.80;;;;;;2279352;61;1148;-84
2021/08/16 06:25:22;0.00;0.00;0.62;0.00;0.00;0.62;;;;;24.80;6.20;;;;;;2277906;61;1494;-84
2021/08/16 06:27:49;110062.00;0.37;190.94;0.00;0.00;0.62;;;;;25.10;6.20;;;;;;2280559;61;1148;-83
2021/08/16 06:30:16;46877.00;0.16;81.78;0.00;0.00;0.62;;;;;25.10;5.40;;;;;;2279851;61;2000;-83
2021/08/16 06:32:45;6189.00;0.02;11.35;0.00;0.00;0.62;;;;;25.40;5.00;;;;;;2274238;61;1157;-83
2021/08/16 06:35:14;90668.00;0.30;157.46;0.00;0.00;0.62;;;;;25.40;3.90;;;;;;2274285;61;1391;-84
2021/08/16 06:37:44;0.00;0.00;0.62;0.00;0.00;0.62;;;;;25.50;3.40;;;;;;2274659;61;1307;-84
2021/08/16 06:40:12;0.00;0.00;0.62;0.00;0.00;0.62;;;;;25.10;3.80;;;;;;2274575;61;1492;-83
2021/08/16 06:42:39;37510.00;0.13;65.58;0.00;0.00;0.62;;;;;25.00;4.80;;;;;;2273949;61;1162;-83
2021/08/16 06:45:07;44142.00;0.15;77.05;0.00;0.00;0.62;;;;;25.00;5.50;;;;;;2274383;61;1442;-84
2021/08/16 06:47:34;318248.00;1.06;549.29;24356.00;0.08;42.81;;;;;25.30;4.00;;;;;;2274314;61;1211;-84
2021/08/16 06:50:01;210952.00;0.70;364.77;0.00;0.00;0.62;;;;;25.60;4.40;;;;;;2275226;61;2008;-84
2021/08/16 06:52:28;381577.00;1.27;658.14;18126.00;0.06;32.02;;;;;26.10;2.70;;;;;;2275716;61;1200;-84
2021/08/16 06:54:56;229063.00;0.76;395.94;17613.00;0.06;31.14;;;;;26.30;1.00;;;;;;2275376;61;1373;-84
2021/08/16 06:57:26;0.00;0.00;0.62;0.00;0.00;0.62;;;;;26.50;1.80;;;;;;2274988;61;1247;-85
2021/08/16 06:59:53;0.00;0.00;0.62;0.00;0.00;0.62;;;;;26.60;1.00;;;;;;2274442;61;1173;-85
2021/08/16 07:02:20;59762.00;0.20;104.07;0.00;0.00;0.62;;;;;26.80;1.00;;;;;;2274889;61;1105;-86
2021/08/16 07:04:47;29580.00;0.10;51.86;0.00;0.00;0.62;;;;;27.00;1.00;;;;;;2275369;61;1265;-86
2021/08/16 07:07:14;317485.00;1.06;547.98;76503.00;0.26;133.00;;;;;27.10;1.00;;;;;;2274557;61;1183;-85
2021/08/16 07:09:41;0.00;0.00;0.62;0.00;0.00;0.62;;;;;27.00;1.00;;;;;;2273899;61;1179;-85
2021/08/16 07:12:10;83872.00;0.28;145.73;0.00;0.00;0.62;;;;;27.10;1.00;;;;;;2272551;61;1104;-83
2021/08/16 07:14:37;0.00;0.00;0.62;0.00;0.00;0.62;;;;;27.00;1.00;;;;;;2273782;61;1270;-85
2021/08/16 07:17:04;80168.00;0.27;139.33;0.00;0.00;0.62;;;;;26.60;1.00;;;;;;2274557;61;1118;-84
2021/08/16 07:19:31;123686.00;0.41;214.44;0.00;0.00;0.62;;;;;26.60;1.00;;;;;;2274807;61;1220;-84
2021/08/16 07:21:57;0.00;0.00;0.62;0.00;0.00;0.62;;;;;27.10;1.00;;;;;;2274225;61;1089;-85
2021/08/16 07:24:24;155364.00;0.52;269.05;0.00;0.00;0.62;;;;;27.80;1.00;;;;;;2274388;61;1277;-84
2021/08/16 07:26:52;152724.00;0.51;264.50;38524.00;0.13;67.33;;;;;28.30;1.00;;;;;;2274131;61;1173;-86
2021/08/16 07:29:20;22548.00;0.08;39.68;0.00;0.00;0.62;;;;;28.70;1.00;;;;;;2275560;61;1205;-85
2021/08/16 07:31:47;79196.00;0.26;137.65;0.00;0.00;0.62;;;;;28.70;1.00;;;;;;2274881;61;2009;-85
2021/08/16 07:34:14;0.00;0.00;0.62;0.00;0.00;0.62;;;;;28.60;1.00;;;;;;2275218;61;1362;-85
2021/08/16 07:36:41;0.00;0.00;0.62;0.00;0.00;0.62;;;;;28.80;1.00;;;;;;2274432;61;1104;-86
2021/08/16 07:39:08;46944.00;0.16;81.90;0.00;0.00;0.62;;;;;28.90;1.00;;;;;;2274162;61;1156;-87
2021/08/16 07:41:35;0.00;0.00;0.62;0.00;0.00;0.62;;;;;28.80;1.00;;;;;;2275083;61;1125;-85
2021/08/16 07:44:01;147823.00;0.49;256.06;30873.00;0.10;54.09;;;;;28.60;1.00;;;;;;2275852;61;1694;-85
2021/08/16 07:46:30;16368.00;0.05;28.98;0.00;0.00;0.62;;;;;28.10;1.00;;;;;;2277890;61;1160;-86
2021/08/16 07:48:57;0.00;0.00;0.62;0.00;0.00;0.62;;;;;27.90;1.00;;;;;;2281433;61;1125;-86
2021/08/16 07:51:24;59392.00;0.20;103.43;0.00;0.00;0.62;;;;;28.40;1.00;;;;;;2283559;61;2000;-86
2021/08/16 07:53:51;64542.00;0.22;112.33;0.00;0.00;0.62;;;;;29.30;1.00;;;;;;2283696;61;1344;-86
2021/08/16 07:56:17;147640.00;0.49;255.74;0.00;0.00;0.62;;;;;30.00;1.00;;;;;;2283297;61;1097;-86
2021/08/16 07:58:44;159379.00;0.53;275.97;13246.00;0.04;23.57;;;;;30.20;1.00;;;;;;2284215;60;1133;-86
2021/08/16 08:01:11;172999.00;0.58;299.43;42890.00;0.14;74.89;;;;;30.60;1.00;;;;;;2283417;60;983;-87
2021/08/16 08:03:39;0.00;0.00;0.62;0.00;0.00;0.62;;;;;30.90;1.00;;;;;;2284158;61;1404;-85
2021/08/16 08:06:06;0.00;0.00;0.62;0.00;0.00;0.62;;;;;31.50;1.00;;;;;;2284234;61;1085;-86
2021/08/16 08:08:34;263146.00;0.88;454.56;67828.00;0.23;118.01;;;;;32.20;1.00;;;;;;2284000;61;1112;-84
2021/08/16 08:11:01;172663.00;0.58;298.85;0.00;0.00;0.62;;;;;32.20;1.00;;;;;;2283311;60;1952;-85
2021/08/16 08:13:28;0.00;0.00;0.62;0.00;0.00;0.62;;;;;32.70;1.00;;;;;;2284413;61;1316;-84
2021/08/16 08:15:55;0.00;0.00;0.62;0.00;0.00;0.62;;;;;33.10;1.00;;;;;;2279070;61;1073;-84
2021/08/16 08:18:23;0.00;0.00;0.62;0.00;0.00;0.62;;;;;33.60;1.00;;;;;;2279516;61;1151;-85
2021/08/16 08:20:51;112534.00;0.38;195.20;42811.00;0.14;74.75;;;;;33.40;1.00;;;;;;2279842;61;1043;-85
2021/08/16 08:23:18;21440.00;0.07;37.76;0.00;0.00;0.62;;;;;33.30;1.00;;;;;;2273111;61;1469;-85
2021/08/16 08:25:45;34698.00;0.12;60.71;0.00;0.00;0.62;;;;;32.60;1.00;;;;;;2269753;61;990;-84
2021/08/16 08:28:15;0.00;0.00;0.62;0.00;0.00;0.62;;;;;31.90;1.00;;;;;;2272900;61;1044;-86
2021/08/16 08:30:43;8215.00;0.03;14.86;0.00;0.00;0.62;;;;;31.50;1.00;;;;;;2270360;61;1995;-87
2021/08/16 08:33:11;64942.00;0.22;113.02;0.00;0.00;0.62;;;;;31.00;1.00;;;;;;2274424;60;1155;-87
2021/08/16 08:35:38;101330.00;0.34;175.87;36526.00;0.12;63.88;;;;;30.90;1.00;;;;;;2281241;61;988;-85
2021/08/16 08:38:09;120436.00;0.40;208.83;55520.00;0.19;96.73;;;;;31.50;1.00;;;;;;2281310;60;1067;-84
2021/08/16 08:40:36;0.00;0.00;0.62;0.00;0.00;0.62;;;;;32.00;1.00;;;;;;2285110;60;1222;-86
2021/08/16 08:43:03;4707.00;0.02;8.78;0.00;0.00;0.62;;;;;32.20;1.00;;;;;;2285134;60;1168;-85
2021/08/16 08:45:30;17742.00;0.06;31.36;0.00;0.00;0.62;;;;;32.10;1.00;;;;;;2272154;61;1236;-85
2021/08/16 08:47:58;15836.00;0.05;28.06;0.00;0.00;0.62;;;;;32.20;1.00;;;;;;2264168;61;1062;-82
2021/08/16 08:50:26;45772.00;0.15;79.87;0.00;0.00;0.62;;;;;32.30;1.00;;;;;;2264192;61;1918;-85
2021/08/16 08:52:58;117330.00;0.39;203.48;43314.00;0.14;75.62;;;;;32.80;1.00;;;;;;2260910;61;959;-87
2021/08/16 08:55:27;23501.00;0.08;41.33;0.00;0.00;0.62;;;;;32.50;1.00;;;;;;2264146;61;1500;-86
2021/08/16 08:57:54;51451.00;0.17;89.70;0.00;0.00;0.62;;;;;32.10;1.00;;;;;;2264193;61;1744;-87
2021/08/16 09:00:21;66499.00;0.22;115.71;0.00;0.00;0.62;;;;;31.90;1.00;;;;;;2264292;61;1240;-84
2021/08/16 09:02:58;220361.00;0.73;380.96;84008.00;0.28;145.96;;;;;31.80;1.00;;;;;;2259428;61;1181;-86
2021/08/16 09:05:26;74144.00;0.25;128.92;0.00;0.00;0.62;;;;;32.10;1.00;;;;;;2272952;61;1340;-85
2021/08/16 09:07:54;0.00;0.00;0.62;0.00;0.00;0.62;;;;;32.10;1.00;;;;;;2280244;61;1183;-86
2021/08/16 09:10:23;210361.00;0.70;363.76;34105.00;0.11;59.69;;;;;32.00;1.00;;;;;;2280358;61;2002;-86
2021/08/16 09:12:55;94805.00;0.32;164.60;0.00;0.00;0.62;;;;;31.40;1.00;;;;;;2271662;61;1137;-86
2021/08/16 09:15:24;0.00;0.00;0.62;0.00;0.00;0.62;;;;;31.70;1.00;;;;;;2272762;61;1975;-87
2021/08/16 09:17:52;18472.00;0.06;32.62;0.00;0.00;0.62;;;;;31.80;1.00;;;;;;2275404;61;1736;-86
2021/08/16 09:20:21;0.00;0.00;0.62;0.00;0.00;0.62;;;;;31.40;1.00;;;;;;2267128;61;1084;-86
2021/08/16 09:22:59;7475.00;0.02;13.57;0.00;0.00;0.62;;;;;30.90;1.00;;;;;;2267362;61;1185;-87
2021/08/16 09:25:29;82362.00;0.27;143.12;0.00;0.00;0.62;;;;;30.20;1.00;;;;;;2265649;61;1321;-86
2021/08/16 09:27:59;0.00;0.00;0.62;0.00;0.00;0.62;;;;;29.90;1.00;;;;;;2265098;61;1220;-87
2021/08/16 09:30:34;40363.00;0.13;70.52;0.00;0.00;0.62;;;;;29.30;1.00;;;;;;2267506;61;1131;-86
2021/08/16 09:33:12;22603.00;0.08;39.78;0.00;0.00;0.62;;;;;28.90;1.00;;;;;;2268288;61;1172;-87
2021/08/16 09:35:50;20331.00;0.07;35.84;0.00;0.00;0.62;;;;;28.70;1.00;;;;;;2268257;61;1165;-87
2021/08/16 09:38:17;47151.00;0.16;82.26;0.00;0.00;0.62;;;;;28.60;1.00;;;;;;2270833;61;1216;-86
2021/08/16 09:40:44;23572.00;0.08;41.46;0.00;0.00;0.62;;;;;28.40;1.00;;;;;;2275551;61;1120;-84
2021/08/16 09:43:12;0.00;0.00;0.62;0.00;0.00;0.62;;;;;28.20;1.00;;;;;;2276271;61;1108;-85
2021/08/16 09:45:40;54469.00;0.18;94.91;0.00;0.00;0.62;;;;;27.90;1.00;;;;;;2277669;61;1797;-85
2021/08/16 09:48:10;102058.00;0.34;177.12;26889.00;0.09;47.20;;;;;27.90;1.00;;;;;;2277951;61;1100;-84
2021/08/16 09:50:38;0.00;0.00;0.62;0.00;0.00;0.62;;;;;28.00;1.00;;;;;;2276051;61;2000;-84
2021/08/16 09:53:10;206572.00;0.69;357.24;67729.00;0.23;117.84;;;;;27.90;1.00;;;;;;2276729;61;1173;-84
2021/08/16 09:55:40;0.00;0.00;0.62;0.00;0.00;0.62;;;;;27.90;1.00;;;;;;2275698;61;1137;-84
2021/08/16 09:58:08;0.00;0.00;0.62;0.00;0.00;0.62;;;;;28.10;1.00;;;;;;2276192;61;1093;-84
2021/08/16 10:00:38;96530.00;0.32;167.58;0.00;0.00;0.62;;;;;27.90;1.00;;;;;;2274388;61;1300;-85
2021/08/16 10:03:07;0.00;0.00;0.62;0.00;0.00;0.62;;;;;28.00;1.00;;;;;;2276818;61;1152;-85
2021/08/16 10:05:38;213008.00;0.71;368.31;0.00;0.00;0.62;;;;;27.90;1.00;;;;;;2276872;61;1373;-85
2021/08/16 10:08:08;0.00;0.00;0.62;0.00;0.00;0.62;;;;;27.90;1.00;;;;;;2277857;61;1165;-85